WICT2: Wichita River At Wichita Falls, TX

                                SHEF ID:       WICT2     Wichita Rv at Wichita Falls, TX
STATION TYPE:
Regulating: Stage = 18.50, Flow = 5482

PRECIP STAGE RIV-FLOW WTR-TEMP CONDUCT BAT-LOAD
in ft cfs F umho/cm volt
Ccp-Rev Ccp-Rev Ccp-Rev Ccp-Rev Ccp-Rev Ccp-Rev
(America/Chicago)
04/12 00:00 ---- 2.23 45 73.45 1164 12.07
04/12 01:00 ---- 2.26 47 73.24 1173 12.06
04/12 02:00 ---- 2.36 58 72.81 1177 12.02
04/12 03:00 ---- 2.46 68 72.23 1170 12.01
04/12 04:00 ---- 2.55 78 71.65 1159 12.00
04/12 05:00 ---- 2.64 89 70.97 1148 11.98
04/12 06:00 ---- 2.62 86 70.27 1125 11.98
04/12 07:00 ---- 2.55 78 69.91 1070 11.95
04/12 08:00 ---- 2.54 77 69.73 1014 11.91
04/12 09:00 ---- 2.60 84 69.69 918 12.06
04/12 10:00 ---- 2.73 100 69.94 902 12.63
04/12 11:00 ---- 2.86 117 70.39 933 12.96
04/12 12:00 ---- 3.04 142 70.90 988 12.90
04/12 13:00 ---- 3.26 174 71.20 1016 12.56
04/12 14:00 ---- 3.50 215 71.74 966 12.60
04/12 15:00 ---- 3.74 256 72.21 923 12.46
04/12 16:00 ---- 3.94 291 72.70 944 12.45
04/12 17:00 ---- 4.06 313 72.79 948 12.36
04/12 18:00 ---- 4.17 334 73.00 937 12.27
04/12 19:00 ---- 4.28 356 72.84 930 12.14
04/12 20:00 ---- 4.42 382 72.70 906 12.15
04/12 21:00 ---- 4.52 401 72.70 838 12.15
04/12 22:00 ---- 4.61 419 72.68 786 12.14
04/12 23:00 ---- 4.67 431 72.48 744 12.12
Data processed at Mon 13Apr2026 04:58 GMT

NOTICE: If you are parsing this page

Please convert to using our Data API. Starting early 2026 we will be migrating to: https://water.usace.army.mil with modern pages rendered in JavaScript. When this migration completes you will no longer be able to scrape this page! CWMSDataAPI (CDA)

Timeseries IDs (TSIDs)

TSIDs used from left to right in the data table
WFAL.Precip-Inc.Total.1Hour.1Hour.Ccp-Rev
WFAL.Stage.Inst.1Hour.0.Ccp-Rev
WFAL.Flow.Inst.1Hour.0.Ccp-Rev
WFAL.Temp-Water.Inst.1Hour.0.Ccp-Rev
WFAL.Cond-Water.Inst.1Hour.0.Ccp-Rev
WFAL.Volt-Battery Load.Inst.1Hour.0.Ccp-Rev

                            

All information presented herein is the property of the government of the United States of America and may be revised or deleted at any time without prior notice. Dissemination of this information without the expressed written consent of the Public Affairs Office, Tulsa District U.S. Army Corps of Engineers is strictly prohibited. These data are gathered electronically and, as presented, have NOT undergone any form of quality control. These data are NOT guaranteed to be valid or correct.